createdAt,value
2022-08-17T00:02:21.772Z,11.13
2022-08-17T00:05:32.746Z,9.55
2022-08-17T00:08:40.303Z,11.68
2022-08-17T00:12:40.346Z,10.63
2022-08-17T00:15:14.596Z,11.18
2022-08-17T00:19:01.912Z,11.23
2022-08-17T00:21:59.980Z,10.52
2022-08-17T00:25:15.923Z,7.82
2022-08-17T00:28:20.877Z,10.27
2022-08-17T00:31:26.373Z,15.57
2022-08-17T00:34:29.668Z,13.40
2022-08-17T00:37:35.428Z,9.95
2022-08-17T00:40:44.934Z,9.18
2022-08-17T00:43:54.117Z,10.40
2022-08-17T00:46:58.682Z,8.88
2022-08-17T00:50:02.186Z,9.93
2022-08-17T00:53:06.535Z,8.68
2022-08-17T00:56:15.611Z,8.57
2022-08-17T00:59:24.178Z,9.55
2022-08-17T01:02:34.901Z,8.75
2022-08-17T01:05:49.399Z,8.35
2022-08-17T01:08:57.270Z,8.25
2022-08-17T01:12:01.912Z,10.27
2022-08-17T01:18:13.464Z,7.87
2022-08-17T01:21:27.743Z,7.35
2022-08-17T01:27:39.033Z,8.10
2022-08-17T01:30:59.003Z,9.68
2022-08-17T01:34:08.629Z,8.55
2022-08-17T01:37:13.899Z,9.55
2022-08-17T01:40:27.022Z,8.90
2022-08-17T01:43:41.127Z,7.60
2022-08-17T01:46:44.401Z,8.50
2022-08-17T01:49:47.594Z,8.47
2022-08-17T01:52:56.692Z,8.37
2022-08-17T01:56:07.730Z,7.25
2022-08-17T01:59:11.651Z,9.27
2022-08-17T02:02:31.132Z,11.20
2022-08-17T02:05:35.143Z,9.23
2022-08-17T02:08:57.047Z,8.90
2022-08-17T02:12:37.100Z,9.02
2022-08-17T02:15:27.174Z,8.82
2022-08-17T02:18:30.520Z,13.18
2022-08-17T02:21:34.045Z,7.83
2022-08-17T02:25:00.319Z,8.88
2022-08-17T02:28:05.846Z,10.05
2022-08-17T02:31:12.477Z,10.55
2022-08-17T02:34:16.813Z,9.57
2022-08-17T02:37:20.334Z,8.18
2022-08-17T02:40:35.081Z,10.02
2022-08-17T02:43:41.267Z,9.50
2022-08-17T02:46:44.635Z,9.82
2022-08-17T02:49:54.239Z,9.70
2022-08-17T02:53:02.346Z,12.55
2022-08-17T02:56:06.595Z,11.13
2022-08-17T02:59:11.307Z,9.55
2022-08-17T03:02:14.534Z,11.90
2022-08-17T03:05:23.395Z,12.17
2022-08-17T03:08:27.195Z,11.70
2022-08-17T03:11:30.469Z,10.70
2022-08-17T03:14:41.263Z,13.87
2022-08-17T03:17:46.016Z,13.25
2022-08-17T03:20:49.231Z,13.95
2022-08-17T03:23:54.339Z,11.93
2022-08-17T03:26:58.225Z,12.73
2022-08-17T03:30:03.398Z,10.80
2022-08-17T03:33:10.997Z,14.30
2022-08-17T03:36:14.978Z,14.70
2022-08-17T03:39:18.211Z,15.90
2022-08-17T03:42:31.307Z,16.00
2022-08-17T03:49:18.570Z,17.95
2022-08-17T03:52:39.507Z,13.95
2022-08-17T03:56:00.501Z,13.90
2022-08-17T03:59:03.911Z,14.57
2022-08-17T04:02:15.200Z,16.42
2022-08-17T04:05:18.561Z,21.08
2022-08-17T04:08:22.093Z,15.73
2022-08-17T04:11:25.354Z,19.23
2022-08-17T04:14:31.109Z,20.07
2022-08-17T04:17:35.744Z,20.85
2022-08-17T04:20:39.026Z,19.52
2022-08-17T04:23:42.262Z,23.57
2022-08-17T04:26:52.981Z,29.83
2022-08-17T04:29:58.478Z,20.25
2022-08-17T04:33:08.606Z,26.10
2022-08-17T04:36:14.658Z,22.90
2022-08-17T04:39:17.947Z,25.85
2022-08-17T04:42:20.120Z,20.97
2022-08-17T04:45:23.830Z,23.45
2022-08-17T04:51:54.644Z,23.23
2022-08-17T04:55:03.630Z,22.00
2022-08-17T04:58:07.324Z,23.98
2022-08-17T05:01:10.824Z,21.58
2022-08-17T05:04:33.221Z,21.38
2022-08-17T05:07:38.502Z,24.15
2022-08-17T05:10:45.339Z,24.10
2022-08-17T05:13:50.729Z,25.77
2022-08-17T05:16:53.938Z,24.17
2022-08-17T05:19:58.710Z,25.23
2022-08-17T05:23:07.080Z,21.05
2022-08-17T05:26:15.235Z,21.63
2022-08-17T05:29:35.250Z,20.85
2022-08-17T05:32:40.471Z,24.40
2022-08-17T05:35:48.753Z,22.60
2022-08-17T05:38:51.920Z,20.00
2022-08-17T05:41:55.103Z,21.90
2022-08-17T05:44:59.422Z,25.90
2022-08-17T05:48:03.106Z,24.13
2022-08-17T05:54:43.609Z,24.65
2022-08-17T05:58:12.335Z,25.40
2022-08-17T06:01:33.236Z,25.38
2022-08-17T06:05:03.599Z,23.75
2022-08-17T06:08:22.832Z,20.70
2022-08-17T06:11:36.699Z,25.23
2022-08-17T06:14:59.360Z,24.98
2022-08-17T06:18:13.727Z,23.30
2022-08-17T06:21:23.735Z,25.35
2022-08-17T06:24:45.413Z,24.38
2022-08-17T06:27:55.250Z,27.13
2022-08-17T06:31:08.104Z,24.98
2022-08-17T06:34:13.913Z,24.23
2022-08-17T06:38:05.028Z,22.88
2022-08-17T06:41:22.624Z,25.38
2022-08-17T06:44:51.457Z,25.38
2022-08-17T06:48:05.722Z,24.83
2022-08-17T06:54:32.773Z,22.05
2022-08-17T06:57:43.364Z,21.60
2022-08-17T07:00:49.521Z,22.52
2022-08-17T07:04:11.501Z,20.77
2022-08-17T07:07:48.703Z,20.10
2022-08-17T07:10:58.687Z,23.35
2022-08-17T07:14:25.051Z,21.05
2022-08-17T07:17:46.636Z,13.70
2022-08-17T07:20:58.925Z,17.48
2022-08-17T07:24:30.021Z,13.27
2022-08-17T07:27:40.238Z,13.95
2022-08-17T07:30:51.354Z,11.40
2022-08-17T07:34:08.412Z,13.18
2022-08-17T07:37:12.675Z,13.07
2022-08-17T07:40:37.556Z,15.63
2022-08-17T07:43:52.331Z,9.48
2022-08-17T07:47:15.900Z,8.75
2022-08-17T07:50:28.914Z,11.27
2022-08-17T07:53:32.162Z,11.10
2022-08-17T07:56:46.004Z,11.07
2022-08-17T08:03:27.119Z,11.55
2022-08-17T08:06:32.147Z,10.05
2022-08-17T08:09:42.125Z,11.25
2022-08-17T08:12:48.447Z,14.52
2022-08-17T08:16:22.609Z,11.45
2022-08-17T08:19:29.231Z,11.45
2022-08-17T08:22:46.047Z,11.75
2022-08-17T08:26:05.040Z,12.63
2022-08-17T08:29:22.494Z,12.57
2022-08-17T08:32:47.994Z,11.10
2022-08-17T08:36:04.764Z,14.63
2022-08-17T08:39:34.863Z,11.23
2022-08-17T08:42:50.409Z,10.75
2022-08-17T08:46:00.682Z,11.13
2022-08-17T08:50:04.300Z,9.70
2022-08-17T08:53:31.982Z,12.90
2022-08-17T08:56:59.194Z,8.05
2022-08-17T09:00:15.748Z,11.02
2022-08-17T09:03:53.199Z,15.15
2022-08-17T09:07:17.239Z,12.05
2022-08-17T09:10:30.776Z,12.10
2022-08-17T09:13:47.134Z,18.05
2022-08-17T09:17:07.408Z,11.50
2022-08-17T09:20:27.436Z,15.93
2022-08-17T09:23:38.278Z,14.20
2022-08-17T09:26:52.452Z,20.63
2022-08-17T09:30:02.510Z,12.95
2022-08-17T09:33:11.520Z,15.90
2022-08-17T09:36:29.260Z,17.77
2022-08-17T09:39:46.497Z,13.63
2022-08-17T09:42:56.627Z,17.52
2022-08-17T09:46:08.247Z,13.35
2022-08-17T09:49:25.117Z,13.70
2022-08-17T09:52:31.535Z,14.18
2022-08-17T09:55:53.421Z,13.45
2022-08-17T09:59:22.447Z,11.18
2022-08-17T10:03:01.471Z,15.80
2022-08-17T10:06:13.723Z,10.55
2022-08-17T10:09:36.677Z,15.48
2022-08-17T10:12:47.634Z,14.23
2022-08-17T10:16:07.762Z,12.85
2022-08-17T10:19:22.255Z,12.23
2022-08-17T10:22:54.813Z,9.68
2022-08-17T10:26:17.569Z,12.63
2022-08-17T10:29:29.918Z,12.52
2022-08-17T10:32:55.170Z,10.40
2022-08-17T10:36:12.235Z,12.40
2022-08-17T10:39:31.896Z,11.98
2022-08-17T10:42:44.497Z,10.60
2022-08-17T10:46:09.203Z,14.13
2022-08-17T10:49:34.165Z,12.38
2022-08-17T10:52:52.782Z,11.45
2022-08-17T10:56:23.777Z,12.90
2022-08-17T10:59:51.812Z,14.02
2022-08-17T11:02:57.458Z,10.82
2022-08-17T11:06:15.212Z,11.88
2022-08-17T11:09:53.370Z,12.57
2022-08-17T11:13:08.522Z,9.90
2022-08-17T11:16:38.748Z,9.05
2022-08-17T11:20:19.290Z,13.68
2022-08-17T11:24:07.615Z,8.52
2022-08-17T11:27:28.351Z,9.88
2022-08-17T11:30:52.628Z,13.13
2022-08-17T11:34:05.975Z,11.65
2022-08-17T11:37:45.948Z,8.70
2022-08-17T11:41:21.087Z,11.38
2022-08-17T11:44:40.749Z,9.32
2022-08-17T11:48:27.877Z,8.05
2022-08-17T11:52:11.333Z,8.40
2022-08-17T11:56:04.219Z,7.68
2022-08-17T12:00:00.239Z,8.30
2022-08-17T12:03:55.449Z,7.95
2022-08-17T12:07:08.201Z,7.40
2022-08-17T12:10:16.131Z,10.23
2022-08-17T12:13:21.573Z,6.68
2022-08-17T12:16:26.821Z,9.05
2022-08-17T12:19:33.867Z,8.77
2022-08-17T12:22:56.528Z,10.80
2022-08-17T12:26:12.946Z,10.50
2022-08-17T12:29:35.938Z,10.15
2022-08-17T12:32:47.600Z,13.68
2022-08-17T12:36:00.094Z,15.50
2022-08-17T12:39:13.955Z,13.70
2022-08-17T12:42:26.557Z,15.35
2022-08-17T12:45:33.644Z,13.05
2022-08-17T12:48:38.411Z,13.98
2022-08-17T12:51:45.924Z,14.45
2022-08-17T12:54:56.176Z,14.70
2022-08-17T12:58:00.849Z,17.08
2022-08-17T13:01:09.790Z,12.30
2022-08-17T13:04:17.186Z,12.60
2022-08-17T13:07:46.518Z,13.95
2022-08-17T13:10:57.671Z,8.82
2022-08-17T13:14:11.726Z,8.20
2022-08-17T13:17:27.544Z,14.27
2022-08-17T13:20:33.364Z,10.68
2022-08-17T13:23:36.713Z,12.88
2022-08-17T13:26:46.642Z,10.00
2022-08-17T13:29:55.715Z,14.00
2022-08-17T13:33:00.376Z,8.25
2022-08-17T13:36:11.391Z,11.68
2022-08-17T13:39:26.491Z,8.30
2022-08-17T13:42:51.780Z,9.10
2022-08-17T13:46:10.746Z,11.77
2022-08-17T13:49:23.214Z,9.30
2022-08-17T13:52:41.071Z,8.02
2022-08-17T13:55:51.676Z,10.85
2022-08-17T13:59:00.277Z,10.15
2022-08-17T14:02:05.721Z,8.93
2022-08-17T14:05:09.276Z,12.02
2022-08-17T14:08:18.762Z,10.25
2022-08-17T14:11:24.006Z,9.63
2022-08-17T14:14:29.224Z,9.65
2022-08-17T14:17:38.089Z,10.75
2022-08-17T14:20:42.250Z,8.88
2022-08-17T14:23:54.570Z,8.15
2022-08-17T14:27:01.393Z,7.22
2022-08-17T14:30:07.700Z,10.65
2022-08-17T14:33:10.914Z,11.15
2022-08-17T14:36:14.187Z,12.45
2022-08-17T14:39:21.738Z,11.10
2022-08-17T14:42:26.268Z,9.70
2022-08-17T14:45:31.908Z,10.45
2022-08-17T14:48:38.536Z,11.70
2022-08-17T14:51:43.714Z,10.43
2022-08-17T14:54:51.509Z,9.60
2022-08-17T14:57:54.715Z,10.48
2022-08-17T15:00:58.558Z,12.32
2022-08-17T15:04:02.188Z,16.15
2022-08-17T15:07:07.270Z,9.23
2022-08-17T15:10:12.618Z,9.13
2022-08-17T15:13:22.625Z,12.82
2022-08-17T15:16:27.069Z,11.18
2022-08-17T15:19:30.474Z,10.80
2022-08-17T15:22:33.715Z,9.45
2022-08-17T15:25:38.347Z,10.13
2022-08-17T15:28:41.675Z,12.07
2022-08-17T15:31:45.791Z,13.13
2022-08-17T15:34:49.523Z,12.43
2022-08-17T15:40:58.604Z,10.90
2022-08-17T15:44:02.508Z,10.55
2022-08-17T15:47:06.267Z,14.52
2022-08-17T15:56:19.300Z,12.33
2022-08-17T15:59:22.674Z,10.88
2022-08-17T16:03:44.312Z,12.27
2022-08-17T16:05:55.217Z,13.15
2022-08-17T16:08:59.786Z,9.05
2022-08-17T16:12:14.259Z,8.77
2022-08-17T16:15:18.751Z,8.43
2022-08-17T16:18:22.778Z,9.85
2022-08-17T16:21:31.291Z,8.00
2022-08-17T16:24:57.328Z,10.02
2022-08-17T16:28:02.272Z,8.73
2022-08-17T16:31:08.016Z,9.15
2022-08-17T16:34:17.457Z,10.27
2022-08-17T16:37:21.791Z,10.00
2022-08-17T16:40:29.061Z,10.05
2022-08-17T16:43:34.692Z,9.07
2022-08-17T16:46:38.044Z,8.55
2022-08-17T16:49:41.305Z,10.85
2022-08-17T16:52:45.623Z,10.85
2022-08-17T16:55:51.853Z,9.57
2022-08-17T16:58:56.437Z,11.73
2022-08-17T17:02:26.888Z,12.70
2022-08-17T17:05:58.654Z,10.15
2022-08-17T17:09:07.185Z,14.40
2022-08-17T17:12:19.838Z,12.10
2022-08-17T17:15:58.824Z,11.75
2022-08-17T17:19:11.898Z,11.40
2022-08-17T17:22:20.119Z,10.05
2022-08-17T17:25:33.856Z,9.95
2022-08-17T17:29:01.541Z,12.60
2022-08-17T17:32:20.857Z,11.32
2022-08-17T17:35:32.003Z,11.85
2022-08-17T17:38:44.545Z,12.02
2022-08-17T17:41:54.668Z,13.15
2022-08-17T17:45:08.538Z,11.68
2022-08-17T17:48:13.399Z,12.88
2022-08-17T17:51:55.647Z,11.48
2022-08-17T17:55:05.354Z,13.05
2022-08-17T17:58:27.323Z,10.15
2022-08-17T18:01:49.348Z,10.00
2022-08-17T18:05:08.352Z,13.23
2022-08-17T18:08:33.816Z,11.23
2022-08-17T18:12:13.132Z,12.07
2022-08-17T18:15:29.556Z,9.57
2022-08-17T18:18:39.845Z,13.73
2022-08-17T18:21:52.142Z,12.00
2022-08-17T18:24:57.276Z,17.63
2022-08-17T18:28:00.563Z,11.45
2022-08-17T18:31:16.636Z,12.45
2022-08-17T18:34:46.497Z,11.90
2022-08-17T18:37:53.857Z,13.05
2022-08-17T18:41:19.222Z,9.10
2022-08-17T18:44:29.370Z,13.07
2022-08-17T18:47:32.717Z,11.07
2022-08-17T18:50:41.574Z,13.05
2022-08-17T18:53:47.403Z,17.50
2022-08-17T18:56:55.935Z,12.40
2022-08-17T19:00:00.785Z,12.63
2022-08-17T19:03:19.983Z,19.25
2022-08-17T19:06:32.844Z,14.07
2022-08-17T19:09:44.639Z,11.30
2022-08-17T19:13:00.648Z,11.90
2022-08-17T19:16:15.788Z,15.90
2022-08-17T19:19:29.065Z,11.25
2022-08-17T19:22:53.524Z,13.25
2022-08-17T19:29:16.271Z,13.15
2022-08-17T19:32:28.643Z,16.80
2022-08-17T19:35:45.287Z,12.20
2022-08-17T19:39:03.410Z,12.45
2022-08-17T19:42:20.212Z,19.05
2022-08-17T19:45:46.367Z,22.98
2022-08-17T19:49:03.788Z,12.43
2022-08-17T19:52:34.382Z,12.85
2022-08-17T19:55:53.524Z,16.58
2022-08-17T19:59:07.850Z,13.63
2022-08-17T20:02:28.914Z,14.18
2022-08-17T20:06:01.311Z,12.45
2022-08-17T20:09:15.216Z,12.85
2022-08-17T20:12:25.283Z,15.77
2022-08-17T20:15:35.695Z,13.68
2022-08-17T20:18:50.654Z,14.50
2022-08-17T20:21:59.887Z,13.52
2022-08-17T20:25:10.986Z,14.32
2022-08-17T20:28:27.812Z,15.10
2022-08-17T20:31:48.518Z,11.50
2022-08-17T20:35:22.432Z,14.10
2022-08-17T20:38:43.363Z,19.87
2022-08-17T20:42:12.498Z,12.65
2022-08-17T20:46:07.851Z,11.65
2022-08-17T20:49:27.829Z,12.45
2022-08-17T20:52:53.184Z,11.07
2022-08-17T20:55:57.112Z,12.30
2022-08-17T21:02:18.441Z,13.77
2022-08-17T21:05:34.360Z,12.65
2022-08-17T21:08:45.908Z,10.90
2022-08-17T21:12:04.960Z,9.40
2022-08-17T21:15:28.581Z,10.48
2022-08-17T21:18:42.476Z,11.98
2022-08-17T21:22:04.645Z,12.05
2022-08-17T21:25:28.138Z,9.32
2022-08-17T21:28:59.938Z,10.90
2022-08-17T21:32:24.246Z,11.85
2022-08-17T21:35:47.193Z,11.38
2022-08-17T21:39:03.704Z,11.07
2022-08-17T21:42:09.341Z,12.10
2022-08-17T21:45:24.856Z,11.40
2022-08-17T21:48:31.280Z,10.25
2022-08-17T21:51:43.959Z,11.32
2022-08-17T21:54:55.791Z,9.52
2022-08-17T21:58:14.882Z,11.60
2022-08-17T22:01:26.422Z,11.48
2022-08-17T22:04:33.266Z,14.60
2022-08-17T22:07:45.394Z,14.45
2022-08-17T22:10:51.967Z,13.10
2022-08-17T22:14:05.348Z,15.48
2022-08-17T22:17:18.738Z,10.30
2022-08-17T22:20:23.500Z,17.67
2022-08-17T22:23:49.907Z,13.00
2022-08-17T22:27:06.933Z,11.98
2022-08-17T22:30:20.940Z,13.50
2022-08-17T22:33:41.847Z,14.68
2022-08-17T22:36:45.184Z,13.15
2022-08-17T22:40:01.003Z,15.68
2022-08-17T22:43:12.000Z,15.82
2022-08-17T22:46:16.570Z,12.43
2022-08-17T22:49:29.153Z,17.35
2022-08-17T22:52:56.903Z,13.82
2022-08-17T22:56:17.920Z,15.43
2022-08-17T22:59:45.531Z,12.10
2022-08-17T23:03:15.114Z,13.10
2022-08-17T23:06:18.437Z,13.00
2022-08-17T23:09:22.304Z,11.83
2022-08-17T23:12:27.761Z,12.93
2022-08-17T23:15:33.916Z,12.52
2022-08-17T23:18:37.473Z,12.40
2022-08-17T23:21:41.429Z,9.80
2022-08-17T23:24:50.564Z,11.07
2022-08-17T23:27:54.416Z,8.93
2022-08-17T23:30:59.575Z,12.13
2022-08-17T23:34:04.461Z,8.93
2022-08-17T23:37:10.950Z,10.80
2022-08-17T23:40:14.487Z,8.65
2022-08-17T23:43:24.180Z,9.00
2022-08-17T23:46:30.221Z,10.15
2022-08-17T23:49:33.789Z,12.02
2022-08-17T23:52:38.524Z,7.32
2022-08-17T23:55:41.708Z,8.00
2022-08-17T23:58:45.768Z,9.67
